sensor_id;sensor_type;location;lat;lon;timestamp;P1;durP1;ratioP1;P2;durP2;ratioP2
45688;SDS011;31400;48.132;20.872;2023-02-15T00:01:34;33.95;;;18.58;;
45688;SDS011;31400;48.132;20.872;2023-02-15T00:04:00;44.17;;;18.95;;
45688;SDS011;31400;48.132;20.872;2023-02-15T00:06:26;54.78;;;20.83;;
45688;SDS011;31400;48.132;20.872;2023-02-15T00:08:53;47.70;;;23.13;;
45688;SDS011;31400;48.132;20.872;2023-02-15T00:11:19;47.47;;;20.80;;
45688;SDS011;31400;48.132;20.872;2023-02-15T00:16:37;34.55;;;18.88;;
45688;SDS011;31400;48.132;20.872;2023-02-15T00:19:03;37.83;;;19.35;;
45688;SDS011;31400;48.132;20.872;2023-02-15T00:21:30;38.47;;;17.25;;
45688;SDS011;31400;48.132;20.872;2023-02-15T00:23:57;43.92;;;18.23;;
45688;SDS011;31400;48.132;20.872;2023-02-15T00:26:23;36.85;;;20.15;;
45688;SDS011;31400;48.132;20.872;2023-02-15T00:28:50;61.67;;;24.15;;
45688;SDS011;31400;48.132;20.872;2023-02-15T00:31:16;49.47;;;23.25;;
45688;SDS011;31400;48.132;20.872;2023-02-15T00:33:42;51.58;;;23.40;;
45688;SDS011;31400;48.132;20.872;2023-02-15T00:36:08;31.33;;;15.43;;
45688;SDS011;31400;48.132;20.872;2023-02-15T00:41:01;55.10;;;23.67;;
45688;SDS011;31400;48.132;20.872;2023-02-15T00:43:28;53.08;;;18.65;;
45688;SDS011;31400;48.132;20.872;2023-02-15T00:45:55;42.45;;;21.35;;
45688;SDS011;31400;48.132;20.872;2023-02-15T00:48:21;45.03;;;20.83;;
45688;SDS011;31400;48.132;20.872;2023-02-15T00:50:51;48.47;;;20.17;;
45688;SDS011;31400;48.132;20.872;2023-02-15T00:53:18;27.92;;;16.50;;
45688;SDS011;31400;48.132;20.872;2023-02-15T00:55:44;40.08;;;20.85;;
45688;SDS011;31400;48.132;20.872;2023-02-15T00:58:10;33.67;;;17.17;;
45688;SDS011;31400;48.132;20.872;2023-02-15T01:00:37;55.47;;;20.50;;
45688;SDS011;31400;48.132;20.872;2023-02-15T01:03:03;42.47;;;19.30;;
45688;SDS011;31400;48.132;20.872;2023-02-15T01:05:29;48.67;;;20.95;;
45688;SDS011;31400;48.132;20.872;2023-02-15T01:07:56;45.17;;;20.30;;
45688;SDS011;31400;48.132;20.872;2023-02-15T01:10:22;44.15;;;21.40;;
45688;SDS011;31400;48.132;20.872;2023-02-15T01:12:49;51.53;;;16.30;;
45688;SDS011;31400;48.132;20.872;2023-02-15T01:15:15;33.85;;;14.63;;
45688;SDS011;31400;48.132;20.872;2023-02-15T01:17:41;40.10;;;20.27;;
45688;SDS011;31400;48.132;20.872;2023-02-15T01:20:10;45.10;;;17.67;;
45688;SDS011;31400;48.132;20.872;2023-02-15T01:25:03;33.85;;;13.82;;
45688;SDS011;31400;48.132;20.872;2023-02-15T01:27:29;42.50;;;14.63;;
45688;SDS011;31400;48.132;20.872;2023-02-15T01:29:56;40.20;;;17.65;;
45688;SDS011;31400;48.132;20.872;2023-02-15T01:32:22;27.67;;;13.35;;
45688;SDS011;31400;48.132;20.872;2023-02-15T01:37:14;27.92;;;12.18;;
45688;SDS011;31400;48.132;20.872;2023-02-15T01:39:40;29.20;;;11.85;;
45688;SDS011;31400;48.132;20.872;2023-02-15T01:42:10;28.08;;;11.40;;
45688;SDS011;31400;48.132;20.872;2023-02-15T01:47:22;26.52;;;9.82;;
45688;SDS011;31400;48.132;20.872;2023-02-15T01:49:48;27.58;;;10.25;;
45688;SDS011;31400;48.132;20.872;2023-02-15T01:52:16;23.02;;;10.25;;
45688;SDS011;31400;48.132;20.872;2023-02-15T01:54:43;33.22;;;13.02;;
45688;SDS011;31400;48.132;20.872;2023-02-15T01:57:11;28.70;;;12.63;;
45688;SDS011;31400;48.132;20.872;2023-02-15T01:59:38;27.42;;;12.10;;
45688;SDS011;31400;48.132;20.872;2023-02-15T02:02:05;23.08;;;10.98;;
45688;SDS011;31400;48.132;20.872;2023-02-15T02:04:35;30.00;;;13.00;;
45688;SDS011;31400;48.132;20.872;2023-02-15T02:07:02;24.02;;;11.63;;
45688;SDS011;31400;48.132;20.872;2023-02-15T02:09:28;30.73;;;12.73;;
45688;SDS011;31400;48.132;20.872;2023-02-15T02:14:21;28.05;;;12.15;;
45688;SDS011;31400;48.132;20.872;2023-02-15T02:19:42;21.30;;;9.57;;
45688;SDS011;31400;48.132;20.872;2023-02-15T02:22:18;21.38;;;12.60;;
45688;SDS011;31400;48.132;20.872;2023-02-15T02:27:41;24.20;;;10.38;;
45688;SDS011;31400;48.132;20.872;2023-02-15T02:35:42;37.13;;;12.95;;
45688;SDS011;31400;48.132;20.872;2023-02-15T02:41:12;29.60;;;12.45;;
45688;SDS011;31400;48.132;20.872;2023-02-15T02:43:40;22.35;;;10.90;;
45688;SDS011;31400;48.132;20.872;2023-02-15T02:48:35;18.17;;;9.57;;
45688;SDS011;31400;48.132;20.872;2023-02-15T02:51:02;18.75;;;8.60;;
45688;SDS011;31400;48.132;20.872;2023-02-15T02:53:28;15.80;;;8.85;;
45688;SDS011;31400;48.132;20.872;2023-02-15T02:55:56;17.10;;;8.77;;
45688;SDS011;31400;48.132;20.872;2023-02-15T03:01:01;26.50;;;12.20;;
45688;SDS011;31400;48.132;20.872;2023-02-15T03:06:16;30.17;;;13.07;;
45688;SDS011;31400;48.132;20.872;2023-02-15T03:08:51;24.30;;;11.70;;
45688;SDS011;31400;48.132;20.872;2023-02-15T03:11:20;29.30;;;13.20;;
45688;SDS011;31400;48.132;20.872;2023-02-15T03:13:46;27.10;;;13.57;;
45688;SDS011;31400;48.132;20.872;2023-02-15T03:16:14;34.70;;;12.77;;
45688;SDS011;31400;48.132;20.872;2023-02-15T03:19:05;30.48;;;8.77;;
45688;SDS011;31400;48.132;20.872;2023-02-15T03:24:32;22.35;;;10.95;;
45688;SDS011;31400;48.132;20.872;2023-02-15T03:26:51;22.48;;;9.80;;
45688;SDS011;31400;48.132;20.872;2023-02-15T03:29:18;22.65;;;10.55;;
45688;SDS011;31400;48.132;20.872;2023-02-15T03:31:45;24.27;;;9.63;;
45688;SDS011;31400;48.132;20.872;2023-02-15T03:34:12;20.70;;;11.35;;
45688;SDS011;31400;48.132;20.872;2023-02-15T03:39:22;21.20;;;11.55;;
45688;SDS011;31400;48.132;20.872;2023-02-15T03:44:29;29.58;;;10.93;;
45688;SDS011;31400;48.132;20.872;2023-02-15T03:51:48;20.80;;;10.10;;
45688;SDS011;31400;48.132;20.872;2023-02-15T03:54:17;21.48;;;9.50;;
45688;SDS011;31400;48.132;20.872;2023-02-15T03:57:04;19.02;;;9.00;;
45688;SDS011;31400;48.132;20.872;2023-02-15T03:59:48;24.25;;;9.80;;
45688;SDS011;31400;48.132;20.872;2023-02-15T04:02:38;19.08;;;11.07;;
45688;SDS011;31400;48.132;20.872;2023-02-15T04:05:05;25.00;;;11.77;;
45688;SDS011;31400;48.132;20.872;2023-02-15T04:07:32;34.70;;;10.23;;
45688;SDS011;31400;48.132;20.872;2023-02-15T04:09:58;22.05;;;12.30;;
45688;SDS011;31400;48.132;20.872;2023-02-15T04:12:42;21.58;;;8.90;;
45688;SDS011;31400;48.132;20.872;2023-02-15T04:15:11;36.17;;;11.55;;
45688;SDS011;31400;48.132;20.872;2023-02-15T04:17:56;17.88;;;8.60;;
45688;SDS011;31400;48.132;20.872;2023-02-15T04:20:22;30.92;;;11.32;;
45688;SDS011;31400;48.132;20.872;2023-02-15T04:23:07;19.50;;;10.38;;
45688;SDS011;31400;48.132;20.872;2023-02-15T04:25:52;16.27;;;7.68;;
45688;SDS011;31400;48.132;20.872;2023-02-15T04:28:18;23.10;;;10.57;;
45688;SDS011;31400;48.132;20.872;2023-02-15T04:30:44;21.90;;;10.73;;
45688;SDS011;31400;48.132;20.872;2023-02-15T04:33:10;24.75;;;9.82;;
45688;SDS011;31400;48.132;20.872;2023-02-15T04:35:36;26.17;;;12.65;;
45688;SDS011;31400;48.132;20.872;2023-02-15T04:38:02;34.35;;;16.25;;
45688;SDS011;31400;48.132;20.872;2023-02-15T04:40:28;19.60;;;8.15;;
45688;SDS011;31400;48.132;20.872;2023-02-15T04:42:54;47.78;;;11.57;;
45688;SDS011;31400;48.132;20.872;2023-02-15T04:45:20;34.47;;;10.77;;
45688;SDS011;31400;48.132;20.872;2023-02-15T04:47:46;20.05;;;10.48;;
45688;SDS011;31400;48.132;20.872;2023-02-15T04:50:12;21.85;;;8.65;;
45688;SDS011;31400;48.132;20.872;2023-02-15T04:52:38;21.45;;;10.48;;
45688;SDS011;31400;48.132;20.872;2023-02-15T04:55:05;17.23;;;7.45;;
45688;SDS011;31400;48.132;20.872;2023-02-15T04:57:31;14.05;;;9.52;;
45688;SDS011;31400;48.132;20.872;2023-02-15T04:59:57;25.83;;;11.18;;
45688;SDS011;31400;48.132;20.872;2023-02-15T05:02:24;21.20;;;11.75;;
45688;SDS011;31400;48.132;20.872;2023-02-15T05:04:50;23.27;;;10.70;;
45688;SDS011;31400;48.132;20.872;2023-02-15T05:07:16;34.08;;;12.15;;
45688;SDS011;31400;48.132;20.872;2023-02-15T05:12:08;30.60;;;13.63;;
45688;SDS011;31400;48.132;20.872;2023-02-15T05:14:34;29.67;;;14.50;;
45688;SDS011;31400;48.132;20.872;2023-02-15T05:17:00;26.75;;;13.48;;
45688;SDS011;31400;48.132;20.872;2023-02-15T05:19:28;26.15;;;15.60;;
45688;SDS011;31400;48.132;20.872;2023-02-15T05:21:54;28.73;;;14.43;;
45688;SDS011;31400;48.132;20.872;2023-02-15T05:24:20;26.23;;;11.45;;
45688;SDS011;31400;48.132;20.872;2023-02-15T05:27:05;30.20;;;16.05;;
45688;SDS011;31400;48.132;20.872;2023-02-15T05:29:49;28.25;;;12.18;;
45688;SDS011;31400;48.132;20.872;2023-02-15T05:32:15;23.58;;;12.52;;
45688;SDS011;31400;48.132;20.872;2023-02-15T05:34:42;32.95;;;14.88;;
45688;SDS011;31400;48.132;20.872;2023-02-15T05:37:10;25.65;;;14.63;;
45688;SDS011;31400;48.132;20.872;2023-02-15T05:39:36;29.95;;;15.57;;
45688;SDS011;31400;48.132;20.872;2023-02-15T05:42:03;24.63;;;12.40;;
45688;SDS011;31400;48.132;20.872;2023-02-15T05:44:29;31.13;;;12.40;;
45688;SDS011;31400;48.132;20.872;2023-02-15T05:46:55;26.25;;;12.82;;
45688;SDS011;31400;48.132;20.872;2023-02-15T05:49:21;28.83;;;11.60;;
45688;SDS011;31400;48.132;20.872;2023-02-15T05:51:47;22.23;;;13.55;;
45688;SDS011;31400;48.132;20.872;2023-02-15T05:54:16;30.52;;;12.63;;
45688;SDS011;31400;48.132;20.872;2023-02-15T05:56:42;25.70;;;10.73;;
45688;SDS011;31400;48.132;20.872;2023-02-15T05:59:08;29.00;;;11.98;;
45688;SDS011;31400;48.132;20.872;2023-02-15T06:01:34;21.38;;;12.23;;
45688;SDS011;31400;48.132;20.872;2023-02-15T06:04:00;28.90;;;12.95;;
45688;SDS011;31400;48.132;20.872;2023-02-15T06:06:26;22.85;;;11.98;;
45688;SDS011;31400;48.132;20.872;2023-02-15T06:08:52;29.45;;;11.90;;
45688;SDS011;31400;48.132;20.872;2023-02-15T06:11:18;23.23;;;14.13;;
45688;SDS011;31400;48.132;20.872;2023-02-15T06:13:44;18.67;;;9.23;;
45688;SDS011;31400;48.132;20.872;2023-02-15T06:16:10;29.73;;;9.55;;
45688;SDS011;31400;48.132;20.872;2023-02-15T06:18:36;17.33;;;8.45;;
45688;SDS011;31400;48.132;20.872;2023-02-15T06:21:02;28.02;;;12.95;;
45688;SDS011;31400;48.132;20.872;2023-02-15T06:23:28;18.80;;;9.48;;
45688;SDS011;31400;48.132;20.872;2023-02-15T06:25:54;23.23;;;10.23;;
45688;SDS011;31400;48.132;20.872;2023-02-15T06:28:21;33.38;;;12.68;;
45688;SDS011;31400;48.132;20.872;2023-02-15T06:30:47;31.25;;;13.50;;
45688;SDS011;31400;48.132;20.872;2023-02-15T06:33:13;32.28;;;12.77;;
45688;SDS011;31400;48.132;20.872;2023-02-15T06:35:39;27.02;;;12.50;;
45688;SDS011;31400;48.132;20.872;2023-02-15T06:38:05;34.20;;;14.13;;
45688;SDS011;31400;48.132;20.872;2023-02-15T06:40:31;30.48;;;12.63;;
45688;SDS011;31400;48.132;20.872;2023-02-15T06:42:57;22.70;;;12.73;;
45688;SDS011;31400;48.132;20.872;2023-02-15T06:45:23;26.58;;;13.73;;
45688;SDS011;31400;48.132;20.872;2023-02-15T06:47:49;28.88;;;12.88;;
45688;SDS011;31400;48.132;20.872;2023-02-15T06:50:15;24.85;;;14.57;;
45688;SDS011;31400;48.132;20.872;2023-02-15T06:52:41;67.20;;;14.40;;
45688;SDS011;31400;48.132;20.872;2023-02-15T06:55:07;23.55;;;12.02;;
45688;SDS011;31400;48.132;20.872;2023-02-15T06:57:33;29.40;;;13.32;;
45688;SDS011;31400;48.132;20.872;2023-02-15T06:59:59;24.58;;;12.05;;
45688;SDS011;31400;48.132;20.872;2023-02-15T07:02:26;27.83;;;15.05;;
45688;SDS011;31400;48.132;20.872;2023-02-15T07:04:52;27.50;;;12.55;;
45688;SDS011;31400;48.132;20.872;2023-02-15T07:07:18;31.60;;;12.15;;
45688;SDS011;31400;48.132;20.872;2023-02-15T07:09:44;22.73;;;12.88;;
45688;SDS011;31400;48.132;20.872;2023-02-15T07:12:10;26.48;;;13.63;;
45688;SDS011;31400;48.132;20.872;2023-02-15T07:14:55;21.63;;;12.00;;
45688;SDS011;31400;48.132;20.872;2023-02-15T07:17:23;21.58;;;12.23;;
45688;SDS011;31400;48.132;20.872;2023-02-15T07:19:49;22.60;;;10.73;;
45688;SDS011;31400;48.132;20.872;2023-02-15T07:22:17;21.42;;;9.98;;
45688;SDS011;31400;48.132;20.872;2023-02-15T07:24:44;31.67;;;11.43;;
45688;SDS011;31400;48.132;20.872;2023-02-15T07:27:10;22.63;;;11.38;;
45688;SDS011;31400;48.132;20.872;2023-02-15T07:29:36;25.13;;;10.85;;
45688;SDS011;31400;48.132;20.872;2023-02-15T07:32:02;20.85;;;11.70;;
45688;SDS011;31400;48.132;20.872;2023-02-15T07:34:28;18.60;;;10.90;;
45688;SDS011;31400;48.132;20.872;2023-02-15T07:36:54;28.33;;;11.15;;
45688;SDS011;31400;48.132;20.872;2023-02-15T07:41:46;24.60;;;13.23;;
45688;SDS011;31400;48.132;20.872;2023-02-15T07:44:13;26.75;;;13.38;;
45688;SDS011;31400;48.132;20.872;2023-02-15T07:46:41;22.88;;;11.52;;
45688;SDS011;31400;48.132;20.872;2023-02-15T07:49:07;20.27;;;10.75;;
45688;SDS011;31400;48.132;20.872;2023-02-15T07:53:59;22.30;;;13.32;;
45688;SDS011;31400;48.132;20.872;2023-02-15T07:58:51;20.90;;;12.70;;
45688;SDS011;31400;48.132;20.872;2023-02-15T08:01:27;22.85;;;12.15;;
45688;SDS011;31400;48.132;20.872;2023-02-15T08:03:54;22.17;;;12.88;;
45688;SDS011;31400;48.132;20.872;2023-02-15T08:06:21;19.80;;;11.60;;
45688;SDS011;31400;48.132;20.872;2023-02-15T08:08:47;21.73;;;12.77;;
45688;SDS011;31400;48.132;20.872;2023-02-15T08:16:28;17.45;;;10.95;;
45688;SDS011;31400;48.132;20.872;2023-02-15T08:18:55;18.42;;;11.02;;
45688;SDS011;31400;48.132;20.872;2023-02-15T08:21:21;18.88;;;10.82;;
45688;SDS011;31400;48.132;20.872;2023-02-15T08:23:48;20.50;;;12.55;;
45688;SDS011;31400;48.132;20.872;2023-02-15T08:26:14;23.00;;;11.93;;
45688;SDS011;31400;48.132;20.872;2023-02-15T08:28:42;19.35;;;11.35;;
45688;SDS011;31400;48.132;20.872;2023-02-15T08:31:09;17.83;;;11.80;;
45688;SDS011;31400;48.132;20.872;2023-02-15T08:33:36;16.80;;;10.40;;
45688;SDS011;31400;48.132;20.872;2023-02-15T08:36:07;14.70;;;9.48;;
45688;SDS011;31400;48.132;20.872;2023-02-15T08:38:34;17.77;;;9.85;;
45688;SDS011;31400;48.132;20.872;2023-02-15T08:43:35;18.02;;;11.15;;
45688;SDS011;31400;48.132;20.872;2023-02-15T08:46:01;18.45;;;11.77;;
45688;SDS011;31400;48.132;20.872;2023-02-15T08:48:27;18.35;;;10.90;;
45688;SDS011;31400;48.132;20.872;2023-02-15T08:50:53;20.05;;;11.43;;
45688;SDS011;31400;48.132;20.872;2023-02-15T08:53:19;16.13;;;10.85;;
45688;SDS011;31400;48.132;20.872;2023-02-15T08:55:47;15.20;;;10.63;;
45688;SDS011;31400;48.132;20.872;2023-02-15T08:58:20;13.40;;;8.25;;
45688;SDS011;31400;48.132;20.872;2023-02-15T09:00:46;14.30;;;9.07;;
45688;SDS011;31400;48.132;20.872;2023-02-15T09:03:13;14.07;;;9.57;;
45688;SDS011;31400;48.132;20.872;2023-02-15T09:05:39;10.90;;;7.80;;
45688;SDS011;31400;48.132;20.872;2023-02-15T09:08:05;11.77;;;6.78;;
45688;SDS011;31400;48.132;20.872;2023-02-15T09:10:31;11.35;;;8.25;;
45688;SDS011;31400;48.132;20.872;2023-02-15T09:12:57;8.90;;;6.97;;
45688;SDS011;31400;48.132;20.872;2023-02-15T09:15:23;10.85;;;7.70;;
45688;SDS011;31400;48.132;20.872;2023-02-15T09:17:49;9.15;;;6.15;;
45688;SDS011;31400;48.132;20.872;2023-02-15T09:20:15;10.35;;;6.57;;
45688;SDS011;31400;48.132;20.872;2023-02-15T09:22:41;9.93;;;6.95;;
45688;SDS011;31400;48.132;20.872;2023-02-15T09:25:07;11.25;;;7.05;;
45688;SDS011;31400;48.132;20.872;2023-02-15T09:27:33;9.80;;;5.80;;
45688;SDS011;31400;48.132;20.872;2023-02-15T09:30:01;14.85;;;7.05;;
45688;SDS011;31400;48.132;20.872;2023-02-15T09:32:27;11.55;;;6.72;;
45688;SDS011;31400;48.132;20.872;2023-02-15T09:34:53;10.85;;;7.10;;
45688;SDS011;31400;48.132;20.872;2023-02-15T09:37:19;11.38;;;7.70;;
45688;SDS011;31400;48.132;20.872;2023-02-15T09:39:48;11.98;;;7.60;;
45688;SDS011;31400;48.132;20.872;2023-02-15T09:45:01;12.10;;;7.63;;
45688;SDS011;31400;48.132;20.872;2023-02-15T10:00:24;12.85;;;6.50;;
45688;SDS011;31400;48.132;20.872;2023-02-15T10:02:59;12.10;;;6.88;;
45688;SDS011;31400;48.132;20.872;2023-02-15T10:13:25;12.13;;;6.95;;
45688;SDS011;31400;48.132;20.872;2023-02-15T10:18:53;12.77;;;7.43;;
45688;SDS011;31400;48.132;20.872;2023-02-15T10:24:00;16.17;;;7.28;;
45688;SDS011;31400;48.132;20.872;2023-02-15T10:27:05;9.73;;;6.55;;
45688;SDS011;31400;48.132;20.872;2023-02-15T10:29:39;17.73;;;7.93;;
45688;SDS011;31400;48.132;20.872;2023-02-15T10:37:17;10.73;;;6.32;;
45688;SDS011;31400;48.132;20.872;2023-02-15T10:42:20;12.68;;;6.82;;
45688;SDS011;31400;48.132;20.872;2023-02-15T10:45:03;11.20;;;7.35;;
45688;SDS011;31400;48.132;20.872;2023-02-15T10:48:16;9.43;;;6.50;;
45688;SDS011;31400;48.132;20.872;2023-02-15T11:00:23;12.95;;;7.53;;
45688;SDS011;31400;48.132;20.872;2023-02-15T11:05:39;7.93;;;5.97;;
45688;SDS011;31400;48.132;20.872;2023-02-15T11:08:07;8.82;;;5.88;;
45688;SDS011;31400;48.132;20.872;2023-02-15T11:13:11;9.77;;;7.00;;
45688;SDS011;31400;48.132;20.872;2023-02-15T11:15:40;11.25;;;7.07;;
45688;SDS011;31400;48.132;20.872;2023-02-15T11:20:59;9.55;;;6.03;;
45688;SDS011;31400;48.132;20.872;2023-02-15T11:23:27;9.40;;;6.53;;
45688;SDS011;31400;48.132;20.872;2023-02-15T11:26:00;14.25;;;6.55;;
45688;SDS011;31400;48.132;20.872;2023-02-15T11:28:34;11.95;;;7.03;;
45688;SDS011;31400;48.132;20.872;2023-02-15T11:31:02;17.95;;;6.60;;
45688;SDS011;31400;48.132;20.872;2023-02-15T11:36:07;14.43;;;7.05;;
45688;SDS011;31400;48.132;20.872;2023-02-15T11:38:34;11.68;;;7.70;;
45688;SDS011;31400;48.132;20.872;2023-02-15T11:41:04;11.40;;;8.13;;
45688;SDS011;31400;48.132;20.872;2023-02-15T11:45:57;12.07;;;7.60;;
45688;SDS011;31400;48.132;20.872;2023-02-15T11:48:23;10.10;;;7.03;;
45688;SDS011;31400;48.132;20.872;2023-02-15T11:50:49;10.55;;;7.50;;
45688;SDS011;31400;48.132;20.872;2023-02-15T11:53:17;12.55;;;7.78;;
45688;SDS011;31400;48.132;20.872;2023-02-15T11:55:46;14.10;;;7.22;;
45688;SDS011;31400;48.132;20.872;2023-02-15T12:00:42;14.40;;;9.60;;
45688;SDS011;31400;48.132;20.872;2023-02-15T12:03:20;15.93;;;10.18;;
45688;SDS011;31400;48.132;20.872;2023-02-15T12:05:49;11.88;;;7.55;;
45688;SDS011;31400;48.132;20.872;2023-02-15T12:08:17;14.30;;;9.60;;
45688;SDS011;31400;48.132;20.872;2023-02-15T12:10:50;17.85;;;9.68;;
45688;SDS011;31400;48.132;20.872;2023-02-15T12:13:19;12.07;;;7.93;;
45688;SDS011;31400;48.132;20.872;2023-02-15T12:15:48;16.58;;;9.13;;
45688;SDS011;31400;48.132;20.872;2023-02-15T12:18:35;14.27;;;9.15;;
45688;SDS011;31400;48.132;20.872;2023-02-15T12:21:12;14.05;;;7.85;;
45688;SDS011;31400;48.132;20.872;2023-02-15T12:23:53;13.55;;;9.05;;
45688;SDS011;31400;48.132;20.872;2023-02-15T12:26:27;14.15;;;7.82;;
45688;SDS011;31400;48.132;20.872;2023-02-15T12:28:53;18.27;;;9.68;;
45688;SDS011;31400;48.132;20.872;2023-02-15T12:31:24;13.75;;;8.35;;
45688;SDS011;31400;48.132;20.872;2023-02-15T12:33:52;12.80;;;6.60;;
45688;SDS011;31400;48.132;20.872;2023-02-15T12:36:26;13.73;;;8.20;;
45688;SDS011;31400;48.132;20.872;2023-02-15T12:42:25;15.40;;;8.95;;
45688;SDS011;31400;48.132;20.872;2023-02-15T12:44:26;16.35;;;8.90;;
45688;SDS011;31400;48.132;20.872;2023-02-15T12:46:57;17.58;;;9.43;;
45688;SDS011;31400;48.132;20.872;2023-02-15T12:49:24;13.60;;;8.90;;
45688;SDS011;31400;48.132;20.872;2023-02-15T12:51:55;14.02;;;9.38;;
45688;SDS011;31400;48.132;20.872;2023-02-15T12:59:13;14.60;;;8.88;;
45688;SDS011;31400;48.132;20.872;2023-02-15T13:01:45;14.65;;;9.32;;
45688;SDS011;31400;48.132;20.872;2023-02-15T13:04:22;15.52;;;9.18;;
45688;SDS011;31400;48.132;20.872;2023-02-15T13:06:49;17.02;;;8.70;;
45688;SDS011;31400;48.132;20.872;2023-02-15T13:11:45;14.13;;;8.55;;
45688;SDS011;31400;48.132;20.872;2023-02-15T13:14:19;17.08;;;8.18;;
45688;SDS011;31400;48.132;20.872;2023-02-15T13:16:47;13.20;;;8.07;;
45688;SDS011;31400;48.132;20.872;2023-02-15T13:19:28;13.52;;;9.15;;
45688;SDS011;31400;48.132;20.872;2023-02-15T13:21:55;19.38;;;9.15;;
45688;SDS011;31400;48.132;20.872;2023-02-15T13:24:24;15.80;;;9.88;;
45688;SDS011;31400;48.132;20.872;2023-02-15T13:26:52;17.55;;;9.50;;
45688;SDS011;31400;48.132;20.872;2023-02-15T13:29:21;17.73;;;9.13;;
45688;SDS011;31400;48.132;20.872;2023-02-15T13:31:48;16.95;;;8.93;;
45688;SDS011;31400;48.132;20.872;2023-02-15T13:34:20;17.10;;;8.68;;
45688;SDS011;31400;48.132;20.872;2023-02-15T13:39:20;17.15;;;8.93;;
45688;SDS011;31400;48.132;20.872;2023-02-15T13:51:41;18.10;;;9.82;;
45688;SDS011;31400;48.132;20.872;2023-02-15T13:54:14;21.45;;;10.65;;
45688;SDS011;31400;48.132;20.872;2023-02-15T13:59:33;17.33;;;9.82;;
45688;SDS011;31400;48.132;20.872;2023-02-15T14:07:24;19.85;;;9.52;;
45688;SDS011;31400;48.132;20.872;2023-02-15T14:12:47;19.17;;;8.55;;
45688;SDS011;31400;48.132;20.872;2023-02-15T14:18:22;24.10;;;10.55;;
45688;SDS011;31400;48.132;20.872;2023-02-15T14:21:04;21.65;;;9.15;;
45688;SDS011;31400;48.132;20.872;2023-02-15T14:23:39;17.65;;;9.27;;
45688;SDS011;31400;48.132;20.872;2023-02-15T14:26:09;20.45;;;9.77;;
45688;SDS011;31400;48.132;20.872;2023-02-15T14:28:40;26.92;;;10.20;;
45688;SDS011;31400;48.132;20.872;2023-02-15T14:31:09;17.20;;;8.45;;
45688;SDS011;31400;48.132;20.872;2023-02-15T14:33:37;20.73;;;10.57;;
45688;SDS011;31400;48.132;20.872;2023-02-15T14:36:08;21.10;;;10.63;;
45688;SDS011;31400;48.132;20.872;2023-02-15T14:46:42;18.45;;;9.55;;
45688;SDS011;31400;48.132;20.872;2023-02-15T14:49:12;19.80;;;10.15;;
45688;SDS011;31400;48.132;20.872;2023-02-15T14:54:08;20.60;;;9.50;;
45688;SDS011;31400;48.132;20.872;2023-02-15T14:56:35;22.38;;;8.23;;
45688;SDS011;31400;48.132;20.872;2023-02-15T15:01:50;18.33;;;9.27;;
45688;SDS011;31400;48.132;20.872;2023-02-15T15:04:28;22.70;;;9.65;;
45688;SDS011;31400;48.132;20.872;2023-02-15T15:07:41;25.13;;;9.77;;
45688;SDS011;31400;48.132;20.872;2023-02-15T15:09:45;16.08;;;8.38;;
45688;SDS011;31400;48.132;20.872;2023-02-15T15:12:14;20.73;;;8.98;;
45688;SDS011;31400;48.132;20.872;2023-02-15T15:14:42;18.75;;;9.68;;
45688;SDS011;31400;48.132;20.872;2023-02-15T15:17:12;17.60;;;9.15;;
45688;SDS011;31400;48.132;20.872;2023-02-15T15:22:16;19.75;;;8.73;;
45688;SDS011;31400;48.132;20.872;2023-02-15T15:29:53;23.13;;;11.18;;
45688;SDS011;31400;48.132;20.872;2023-02-15T15:32:19;26.52;;;10.18;;
45688;SDS011;31400;48.132;20.872;2023-02-15T15:43:01;18.00;;;8.30;;
45688;SDS011;31400;48.132;20.872;2023-02-15T15:46:18;22.45;;;10.45;;
45688;SDS011;31400;48.132;20.872;2023-02-15T15:48:37;26.13;;;9.68;;
45688;SDS011;31400;48.132;20.872;2023-02-15T15:53:42;25.20;;;10.30;;
45688;SDS011;31400;48.132;20.872;2023-02-15T15:56:16;21.42;;;9.27;;
45688;SDS011;31400;48.132;20.872;2023-02-15T15:58:45;24.33;;;9.23;;
45688;SDS011;31400;48.132;20.872;2023-02-15T16:01:13;18.30;;;8.43;;
45688;SDS011;31400;48.132;20.872;2023-02-15T16:09:23;26.48;;;9.50;;
45688;SDS011;31400;48.132;20.872;2023-02-15T16:11:50;19.17;;;8.65;;
45688;SDS011;31400;48.132;20.872;2023-02-15T16:14:20;23.08;;;9.93;;
45688;SDS011;31400;48.132;20.872;2023-02-15T16:16:51;24.92;;;10.60;;
45688;SDS011;31400;48.132;20.872;2023-02-15T16:19:19;21.20;;;10.68;;
45688;SDS011;31400;48.132;20.872;2023-02-15T16:21:52;22.05;;;10.18;;
45688;SDS011;31400;48.132;20.872;2023-02-15T16:24:41;29.85;;;11.50;;
45688;SDS011;31400;48.132;20.872;2023-02-15T16:29:49;34.42;;;12.48;;
45688;SDS011;31400;48.132;20.872;2023-02-15T16:37:46;27.55;;;14.25;;
45688;SDS011;31400;48.132;20.872;2023-02-15T16:42:54;27.98;;;11.70;;
45688;SDS011;31400;48.132;20.872;2023-02-15T16:45:22;38.33;;;13.50;;
45688;SDS011;31400;48.132;20.872;2023-02-15T16:47:50;31.52;;;15.35;;
45688;SDS011;31400;48.132;20.872;2023-02-15T16:50:23;28.88;;;11.65;;
45688;SDS011;31400;48.132;20.872;2023-02-15T16:52:56;29.95;;;13.25;;
45688;SDS011;31400;48.132;20.872;2023-02-15T16:55:24;29.83;;;10.55;;
45688;SDS011;31400;48.132;20.872;2023-02-15T16:57:51;29.25;;;13.13;;
45688;SDS011;31400;48.132;20.872;2023-02-15T17:00:20;30.63;;;13.50;;
45688;SDS011;31400;48.132;20.872;2023-02-15T17:03:04;26.35;;;13.88;;
45688;SDS011;31400;48.132;20.872;2023-02-15T17:05:40;27.20;;;12.57;;
45688;SDS011;31400;48.132;20.872;2023-02-15T17:10:37;25.40;;;12.00;;
45688;SDS011;31400;48.132;20.872;2023-02-15T17:13:16;27.25;;;10.95;;
45688;SDS011;31400;48.132;20.872;2023-02-15T17:18:14;27.73;;;12.48;;
45688;SDS011;31400;48.132;20.872;2023-02-15T17:20:41;20.13;;;9.88;;
45688;SDS011;31400;48.132;20.872;2023-02-15T17:25:53;31.05;;;14.18;;
45688;SDS011;31400;48.132;20.872;2023-02-15T17:30:45;25.00;;;10.13;;
45688;SDS011;31400;48.132;20.872;2023-02-15T17:35:38;28.95;;;11.63;;
45688;SDS011;31400;48.132;20.872;2023-02-15T17:38:27;28.95;;;14.27;;
45688;SDS011;31400;48.132;20.872;2023-02-15T17:40:52;37.22;;;13.75;;
45688;SDS011;31400;48.132;20.872;2023-02-15T17:43:29;40.95;;;13.60;;
45688;SDS011;31400;48.132;20.872;2023-02-15T17:45:56;39.17;;;16.85;;
45688;SDS011;31400;48.132;20.872;2023-02-15T17:48:23;34.70;;;12.65;;
45688;SDS011;31400;48.132;20.872;2023-02-15T17:50:50;43.45;;;16.52;;
45688;SDS011;31400;48.132;20.872;2023-02-15T17:53:17;41.10;;;15.90;;
45688;SDS011;31400;48.132;20.872;2023-02-15T17:55:44;33.35;;;14.32;;
45688;SDS011;31400;48.132;20.872;2023-02-15T17:58:14;39.65;;;16.27;;
45688;SDS011;31400;48.132;20.872;2023-02-15T18:00:42;37.30;;;16.48;;
45688;SDS011;31400;48.132;20.872;2023-02-15T18:03:41;32.45;;;15.10;;
45688;SDS011;31400;48.132;20.872;2023-02-15T18:06:26;33.10;;;14.98;;
45688;SDS011;31400;48.132;20.872;2023-02-15T18:09:15;40.95;;;15.32;;
45688;SDS011;31400;48.132;20.872;2023-02-15T18:12:01;30.83;;;13.75;;
45688;SDS011;31400;48.132;20.872;2023-02-15T18:14:27;29.42;;;14.32;;